sensor_id;sensor_type;location;lat;lon;timestamp;P1;durP1;ratioP1;P2;durP2;ratioP2
63406;SDS011;49543;45.892;10.838;2023-12-29T12:30:37;12.10;;;9.18;;
63406;SDS011;49543;45.892;10.838;2023-12-29T12:33:03;13.13;;;9.90;;
63406;SDS011;49543;45.892;10.838;2023-12-29T12:35:29;12.88;;;9.90;;
63406;SDS011;49543;45.892;10.838;2023-12-29T12:40:41;12.30;;;9.90;;
63406;SDS011;49543;45.892;10.838;2023-12-29T12:43:06;14.43;;;8.90;;
63406;SDS011;49543;45.892;10.838;2023-12-29T12:45:40;16.58;;;10.43;;
63406;SDS011;49543;45.892;10.838;2023-12-29T15:14:15;13.13;;;9.70;;
63406;SDS011;49543;45.892;10.838;2023-12-29T15:16:40;10.88;;;9.02;;
63406;SDS011;49543;45.892;10.838;2023-12-29T15:19:06;10.73;;;9.00;;
63406;SDS011;49543;45.892;10.838;2023-12-29T15:21:33;11.50;;;8.50;;
63406;SDS011;49543;45.892;10.838;2023-12-29T15:23:59;11.23;;;8.25;;
63406;SDS011;49543;45.892;10.838;2023-12-29T15:26:24;12.35;;;9.38;;
63406;SDS011;49543;45.892;10.838;2023-12-29T15:28:50;11.45;;;8.88;;
63406;SDS011;49543;45.892;10.838;2023-12-29T15:31:17;12.95;;;8.90;;
63406;SDS011;49543;45.892;10.838;2023-12-29T15:33:43;12.35;;;9.13;;
63406;SDS011;49543;45.892;10.838;2023-12-29T15:36:12;11.88;;;9.82;;
63406;SDS011;49543;45.892;10.838;2023-12-29T15:38:39;12.55;;;8.98;;
63406;SDS011;49543;45.892;10.838;2023-12-29T15:41:05;12.43;;;8.55;;
63406;SDS011;49543;45.892;10.838;2023-12-29T15:43:30;10.30;;;8.70;;
63406;SDS011;49543;45.892;10.838;2023-12-29T15:45:56;14.45;;;9.05;;
63406;SDS011;49543;45.892;10.838;2023-12-29T15:48:21;12.82;;;8.82;;
63406;SDS011;49543;45.892;10.838;2023-12-29T15:50:46;13.43;;;9.93;;
63406;SDS011;49543;45.892;10.838;2023-12-29T15:53:12;12.80;;;9.00;;
63406;SDS011;49543;45.892;10.838;2023-12-29T15:55:37;12.23;;;9.32;;
63406;SDS011;49543;45.892;10.838;2023-12-29T15:58:03;13.82;;;9.18;;
63406;SDS011;49543;45.892;10.838;2023-12-29T16:00:29;12.02;;;8.70;;
63406;SDS011;49543;45.892;10.838;2023-12-29T16:02:54;15.10;;;9.93;;
63406;SDS011;49543;45.892;10.838;2023-12-29T16:05:20;17.15;;;11.93;;
63406;SDS011;49543;45.892;10.838;2023-12-29T16:07:45;54.38;;;35.75;;
63406;SDS011;49543;45.892;10.838;2023-12-29T16:10:11;48.25;;;30.17;;
63406;SDS011;49543;45.892;10.838;2023-12-29T16:12:36;23.60;;;16.80;;
63406;SDS011;49543;45.892;10.838;2023-12-29T16:15:02;22.63;;;18.17;;
63406;SDS011;49543;45.892;10.838;2023-12-29T16:17:28;21.35;;;19.05;;
63406;SDS011;49543;45.892;10.838;2023-12-29T16:19:54;15.57;;;12.38;;
63406;SDS011;49543;45.892;10.838;2023-12-29T16:22:19;21.05;;;15.73;;
63406;SDS011;49543;45.892;10.838;2023-12-29T16:24:45;20.45;;;13.88;;
63406;SDS011;49543;45.892;10.838;2023-12-29T16:27:12;14.82;;;11.30;;
63406;SDS011;49543;45.892;10.838;2023-12-29T16:29:38;14.85;;;9.05;;
63406;SDS011;49543;45.892;10.838;2023-12-29T16:32:05;11.10;;;8.90;;
63406;SDS011;49543;45.892;10.838;2023-12-29T16:34:30;14.30;;;9.20;;
63406;SDS011;49543;45.892;10.838;2023-12-29T16:36:59;12.00;;;8.82;;
63406;SDS011;49543;45.892;10.838;2023-12-29T16:39:25;13.43;;;8.77;;
63406;SDS011;49543;45.892;10.838;2023-12-29T16:41:51;18.40;;;12.63;;
63406;SDS011;49543;45.892;10.838;2023-12-29T16:44:16;36.25;;;24.30;;
63406;SDS011;49543;45.892;10.838;2023-12-29T16:46:42;48.55;;;33.05;;
63406;SDS011;49543;45.892;10.838;2023-12-29T16:49:08;30.85;;;21.48;;
63406;SDS011;49543;45.892;10.838;2023-12-29T16:51:34;27.33;;;18.35;;
63406;SDS011;49543;45.892;10.838;2023-12-29T16:53:59;34.90;;;23.83;;
63406;SDS011;49543;45.892;10.838;2023-12-29T16:56:27;29.63;;;20.95;;
63406;SDS011;49543;45.892;10.838;2023-12-29T16:58:57;22.75;;;17.48;;
63406;SDS011;49543;45.892;10.838;2023-12-29T17:01:25;16.33;;;11.45;;
63406;SDS011;49543;45.892;10.838;2023-12-29T17:03:51;18.00;;;13.30;;
63406;SDS011;49543;45.892;10.838;2023-12-29T17:06:17;17.67;;;12.43;;
63406;SDS011;49543;45.892;10.838;2023-12-29T17:08:42;16.17;;;11.98;;
63406;SDS011;49543;45.892;10.838;2023-12-29T17:11:07;14.70;;;11.15;;
63406;SDS011;49543;45.892;10.838;2023-12-29T17:13:33;15.82;;;11.07;;
63406;SDS011;49543;45.892;10.838;2023-12-29T17:16:00;14.10;;;10.15;;
63406;SDS011;49543;45.892;10.838;2023-12-29T17:18:28;13.88;;;10.60;;
63406;SDS011;49543;45.892;10.838;2023-12-29T17:20:54;13.18;;;10.07;;
63406;SDS011;49543;45.892;10.838;2023-12-29T17:23:20;14.90;;;9.98;;
63406;SDS011;49543;45.892;10.838;2023-12-29T17:25:45;14.15;;;10.77;;
63406;SDS011;49543;45.892;10.838;2023-12-29T17:28:11;15.07;;;10.50;;
63406;SDS011;49543;45.892;10.838;2023-12-29T17:30:36;15.63;;;10.95;;
63406;SDS011;49543;45.892;10.838;2023-12-29T17:33:01;19.25;;;12.57;;
63406;SDS011;49543;45.892;10.838;2023-12-29T17:35:27;15.07;;;11.50;;
63406;SDS011;49543;45.892;10.838;2023-12-29T17:37:52;18.83;;;12.88;;
63406;SDS011;49543;45.892;10.838;2023-12-29T17:40:18;19.25;;;12.95;;
63406;SDS011;49543;45.892;10.838;2023-12-29T17:42:43;21.92;;;13.82;;
63406;SDS011;49543;45.892;10.838;2023-12-29T17:45:09;18.30;;;13.82;;
63406;SDS011;49543;45.892;10.838;2023-12-29T17:47:34;28.45;;;18.77;;
63406;SDS011;49543;45.892;10.838;2023-12-29T17:50:00;25.25;;;17.10;;
63406;SDS011;49543;45.892;10.838;2023-12-29T17:52:26;23.17;;;15.38;;
63406;SDS011;49543;45.892;10.838;2023-12-29T17:54:52;23.40;;;16.10;;
63406;SDS011;49543;45.892;10.838;2023-12-29T17:57:17;23.75;;;16.20;;
63406;SDS011;49543;45.892;10.838;2023-12-29T17:59:43;23.73;;;15.85;;
63406;SDS011;49543;45.892;10.838;2023-12-29T18:02:08;25.80;;;16.38;;
63406;SDS011;49543;45.892;10.838;2023-12-29T18:04:33;26.70;;;17.10;;
63406;SDS011;49543;45.892;10.838;2023-12-29T18:06:59;26.67;;;16.33;;
63406;SDS011;49543;45.892;10.838;2023-12-29T18:09:24;25.95;;;16.45;;
63406;SDS011;49543;45.892;10.838;2023-12-29T18:11:50;25.15;;;16.75;;
63406;SDS011;49543;45.892;10.838;2023-12-29T18:14:16;22.83;;;15.07;;
63406;SDS011;49543;45.892;10.838;2023-12-29T18:16:41;21.50;;;14.63;;
63406;SDS011;49543;45.892;10.838;2023-12-29T18:19:07;23.75;;;16.13;;
63406;SDS011;49543;45.892;10.838;2023-12-29T18:21:33;25.00;;;16.00;;
63406;SDS011;49543;45.892;10.838;2023-12-29T18:23:59;31.50;;;18.02;;
63406;SDS011;49543;45.892;10.838;2023-12-29T18:26:25;27.55;;;17.20;;
63406;SDS011;49543;45.892;10.838;2023-12-29T18:28:50;26.75;;;16.50;;
63406;SDS011;49543;45.892;10.838;2023-12-29T18:31:16;22.30;;;15.57;;
63406;SDS011;49543;45.892;10.838;2023-12-29T18:33:44;22.75;;;15.85;;
63406;SDS011;49543;45.892;10.838;2023-12-29T18:36:10;22.50;;;16.23;;
63406;SDS011;49543;45.892;10.838;2023-12-29T18:38:36;29.23;;;18.08;;
63406;SDS011;49543;45.892;10.838;2023-12-29T18:41:08;23.65;;;15.88;;
63406;SDS011;49543;45.892;10.838;2023-12-29T18:43:34;20.85;;;16.42;;
63406;SDS011;49543;45.892;10.838;2023-12-29T18:46:03;22.98;;;16.50;;
63406;SDS011;49543;45.892;10.838;2023-12-29T18:48:29;23.73;;;16.20;;
63406;SDS011;49543;45.892;10.838;2023-12-29T18:50:55;21.98;;;15.65;;
63406;SDS011;49543;45.892;10.838;2023-12-29T18:53:20;25.17;;;16.58;;
63406;SDS011;49543;45.892;10.838;2023-12-29T18:55:46;24.08;;;16.92;;
63406;SDS011;49543;45.892;10.838;2023-12-29T18:58:11;23.88;;;16.88;;
63406;SDS011;49543;45.892;10.838;2023-12-29T19:00:37;30.30;;;20.63;;
63406;SDS011;49543;45.892;10.838;2023-12-29T19:03:03;24.30;;;17.52;;
63406;SDS011;49543;45.892;10.838;2023-12-29T19:05:28;24.55;;;17.88;;
63406;SDS011;49543;45.892;10.838;2023-12-29T19:07:54;26.70;;;16.63;;
63406;SDS011;49543;45.892;10.838;2023-12-29T19:10:20;26.58;;;17.50;;
63406;SDS011;49543;45.892;10.838;2023-12-29T19:12:45;26.10;;;18.17;;
63406;SDS011;49543;45.892;10.838;2023-12-29T19:15:12;24.45;;;17.63;;
63406;SDS011;49543;45.892;10.838;2023-12-29T19:17:39;24.85;;;18.33;;
63406;SDS011;49543;45.892;10.838;2023-12-29T19:20:05;26.77;;;18.58;;
63406;SDS011;49543;45.892;10.838;2023-12-29T19:22:31;29.15;;;18.85;;
63406;SDS011;49543;45.892;10.838;2023-12-29T19:24:57;27.38;;;19.25;;
63406;SDS011;49543;45.892;10.838;2023-12-29T19:27:22;27.30;;;19.52;;
63406;SDS011;49543;45.892;10.838;2023-12-29T19:29:48;32.45;;;19.30;;
63406;SDS011;49543;45.892;10.838;2023-12-29T19:32:13;31.58;;;19.05;;
63406;SDS011;49543;45.892;10.838;2023-12-29T19:34:41;28.77;;;19.55;;
63406;SDS011;49543;45.892;10.838;2023-12-29T19:37:07;29.48;;;18.73;;
63406;SDS011;49543;45.892;10.838;2023-12-29T19:39:33;30.27;;;18.27;;
63406;SDS011;49543;45.892;10.838;2023-12-29T19:41:58;25.77;;;18.90;;
63406;SDS011;49543;45.892;10.838;2023-12-29T19:44:23;26.33;;;19.10;;
63406;SDS011;49543;45.892;10.838;2023-12-29T19:46:49;30.83;;;20.98;;
63406;SDS011;49543;45.892;10.838;2023-12-29T19:49:14;27.98;;;17.70;;
63406;SDS011;49543;45.892;10.838;2023-12-29T19:51:40;26.13;;;18.67;;
63406;SDS011;49543;45.892;10.838;2023-12-29T19:54:05;30.35;;;19.13;;
63406;SDS011;49543;45.892;10.838;2023-12-29T19:56:31;25.92;;;17.60;;
63406;SDS011;49543;45.892;10.838;2023-12-29T19:58:56;26.38;;;18.23;;
63406;SDS011;49543;45.892;10.838;2023-12-29T20:01:22;29.13;;;18.63;;
63406;SDS011;49543;45.892;10.838;2023-12-29T20:03:49;26.90;;;18.30;;
63406;SDS011;49543;45.892;10.838;2023-12-29T20:06:21;29.52;;;18.20;;
63406;SDS011;49543;45.892;10.838;2023-12-29T20:08:49;42.42;;;27.67;;
63406;SDS011;49543;45.892;10.838;2023-12-29T20:11:16;34.28;;;22.02;;
63406;SDS011;49543;45.892;10.838;2023-12-29T20:13:42;27.05;;;18.02;;
63406;SDS011;49543;45.892;10.838;2023-12-29T20:16:08;20.92;;;15.10;;
63406;SDS011;49543;45.892;10.838;2023-12-29T20:18:34;22.38;;;15.95;;
63406;SDS011;49543;45.892;10.838;2023-12-29T20:21:00;22.20;;;15.60;;
63406;SDS011;49543;45.892;10.838;2023-12-29T20:23:29;25.38;;;15.73;;
63406;SDS011;49543;45.892;10.838;2023-12-29T20:25:55;22.65;;;16.42;;
63406;SDS011;49543;45.892;10.838;2023-12-29T20:28:21;23.90;;;14.93;;
63406;SDS011;49543;45.892;10.838;2023-12-29T20:30:46;20.55;;;14.75;;
63406;SDS011;49543;45.892;10.838;2023-12-29T20:33:12;24.23;;;15.27;;
63406;SDS011;49543;45.892;10.838;2023-12-29T20:35:37;22.67;;;15.30;;
63406;SDS011;49543;45.892;10.838;2023-12-29T20:38:06;22.23;;;15.15;;
63406;SDS011;49543;45.892;10.838;2023-12-29T20:40:31;22.75;;;14.20;;
63406;SDS011;49543;45.892;10.838;2023-12-29T20:42:57;21.95;;;14.00;;
63406;SDS011;49543;45.892;10.838;2023-12-29T20:45:22;16.75;;;12.02;;
63406;SDS011;49543;45.892;10.838;2023-12-29T20:47:48;19.77;;;12.73;;
63406;SDS011;49543;45.892;10.838;2023-12-29T20:50:13;19.75;;;12.88;;
63406;SDS011;49543;45.892;10.838;2023-12-29T20:52:39;19.50;;;13.88;;
63406;SDS011;49543;45.892;10.838;2023-12-29T20:55:04;21.27;;;14.65;;
63406;SDS011;49543;45.892;10.838;2023-12-29T20:57:30;26.90;;;17.33;;
63406;SDS011;49543;45.892;10.838;2023-12-29T20:59:57;23.27;;;15.13;;
63406;SDS011;49543;45.892;10.838;2023-12-29T21:02:23;21.23;;;14.07;;
63406;SDS011;49543;45.892;10.838;2023-12-29T21:04:50;20.85;;;14.13;;
63406;SDS011;49543;45.892;10.838;2023-12-29T21:07:16;19.08;;;13.70;;
63406;SDS011;49543;45.892;10.838;2023-12-29T21:09:41;18.92;;;13.35;;
63406;SDS011;49543;45.892;10.838;2023-12-29T21:12:07;20.35;;;13.43;;
63406;SDS011;49543;45.892;10.838;2023-12-29T21:14:37;21.35;;;14.38;;
63406;SDS011;49543;45.892;10.838;2023-12-29T21:17:10;21.58;;;13.68;;
63406;SDS011;49543;45.892;10.838;2023-12-29T21:19:35;20.80;;;14.35;;
63406;SDS011;49543;45.892;10.838;2023-12-29T21:22:03;21.15;;;12.88;;
63406;SDS011;49543;45.892;10.838;2023-12-29T21:24:29;21.48;;;14.25;;
63406;SDS011;49543;45.892;10.838;2023-12-29T21:26:54;17.63;;;13.18;;
63406;SDS011;49543;45.892;10.838;2023-12-29T21:29:20;18.88;;;13.65;;
63406;SDS011;49543;45.892;10.838;2023-12-29T21:31:45;19.88;;;13.70;;
63406;SDS011;49543;45.892;10.838;2023-12-29T21:34:11;20.98;;;12.85;;
63406;SDS011;49543;45.892;10.838;2023-12-29T21:36:37;19.02;;;13.25;;
63406;SDS011;49543;45.892;10.838;2023-12-29T21:39:06;17.83;;;12.40;;
63406;SDS011;49543;45.892;10.838;2023-12-29T21:41:33;17.95;;;12.25;;
63406;SDS011;49543;45.892;10.838;2023-12-29T21:44:00;18.88;;;13.07;;
63406;SDS011;49543;45.892;10.838;2023-12-29T21:46:28;22.58;;;13.70;;
63406;SDS011;49543;45.892;10.838;2023-12-29T21:48:53;20.27;;;13.25;;
63406;SDS011;49543;45.892;10.838;2023-12-29T21:51:22;22.38;;;14.80;;
63406;SDS011;49543;45.892;10.838;2023-12-29T21:53:51;25.20;;;15.25;;
63406;SDS011;49543;45.892;10.838;2023-12-29T21:56:17;23.73;;;16.05;;
63406;SDS011;49543;45.892;10.838;2023-12-29T21:58:42;30.88;;;19.25;;
63406;SDS011;49543;45.892;10.838;2023-12-29T22:01:25;31.13;;;19.25;;
63406;SDS011;49543;45.892;10.838;2023-12-29T22:03:54;53.17;;;29.83;;
63406;SDS011;49543;45.892;10.838;2023-12-29T22:06:23;45.55;;;27.63;;
63406;SDS011;49543;45.892;10.838;2023-12-29T22:08:48;42.33;;;28.15;;
63406;SDS011;49543;45.892;10.838;2023-12-29T22:11:15;36.05;;;23.83;;
63406;SDS011;49543;45.892;10.838;2023-12-29T22:13:41;40.78;;;24.75;;
63406;SDS011;49543;45.892;10.838;2023-12-29T22:16:07;39.45;;;24.05;;
63406;SDS011;49543;45.892;10.838;2023-12-29T22:18:33;31.23;;;20.73;;
63406;SDS011;49543;45.892;10.838;2023-12-29T22:20:58;34.95;;;21.95;;
63406;SDS011;49543;45.892;10.838;2023-12-29T22:23:24;30.10;;;19.30;;
63406;SDS011;49543;45.892;10.838;2023-12-29T22:25:49;30.67;;;19.80;;
63406;SDS011;49543;45.892;10.838;2023-12-29T22:28:14;30.52;;;20.05;;
63406;SDS011;49543;45.892;10.838;2023-12-29T22:30:40;35.30;;;23.25;;
63406;SDS011;49543;45.892;10.838;2023-12-29T22:33:05;43.42;;;30.85;;
63406;SDS011;49543;45.892;10.838;2023-12-29T22:35:31;31.58;;;20.48;;
63406;SDS011;49543;45.892;10.838;2023-12-29T22:37:57;23.20;;;15.50;;
63406;SDS011;49543;45.892;10.838;2023-12-29T22:40:22;21.05;;;14.50;;
63406;SDS011;49543;45.892;10.838;2023-12-29T22:42:48;21.75;;;14.25;;
63406;SDS011;49543;45.892;10.838;2023-12-29T22:45:13;21.27;;;14.35;;
63406;SDS011;49543;45.892;10.838;2023-12-29T22:47:39;24.40;;;15.88;;
63406;SDS011;49543;45.892;10.838;2023-12-29T22:50:05;21.75;;;14.15;;
63406;SDS011;49543;45.892;10.838;2023-12-29T22:52:31;24.23;;;15.10;;
63406;SDS011;49543;45.892;10.838;2023-12-29T22:55:00;23.95;;;14.75;;
